sensor_id;sensor_type;location;lat;lon;timestamp;P1;durP1;ratioP1;P2;durP2;ratioP2
51244;SDS011;37840;47.562;18.738;2023-11-21T00:00:31;4.47;;;3.00;;
51244;SDS011;37840;47.562;18.738;2023-11-21T00:02:57;4.45;;;2.83;;
51244;SDS011;37840;47.562;18.738;2023-11-21T00:05:23;4.12;;;2.42;;
51244;SDS011;37840;47.562;18.738;2023-11-21T00:07:49;5.15;;;2.47;;
51244;SDS011;37840;47.562;18.738;2023-11-21T00:10:16;3.60;;;2.30;;
51244;SDS011;37840;47.562;18.738;2023-11-21T00:12:43;4.57;;;2.60;;
51244;SDS011;37840;47.562;18.738;2023-11-21T00:15:09;3.97;;;2.60;;
51244;SDS011;37840;47.562;18.738;2023-11-21T00:17:39;4.47;;;2.62;;
51244;SDS011;37840;47.562;18.738;2023-11-21T00:20:06;5.47;;;2.50;;
51244;SDS011;37840;47.562;18.738;2023-11-21T00:22:33;4.68;;;2.60;;
51244;SDS011;37840;47.562;18.738;2023-11-21T00:25:00;3.95;;;2.30;;
51244;SDS011;37840;47.562;18.738;2023-11-21T00:27:26;4.05;;;2.50;;
51244;SDS011;37840;47.562;18.738;2023-11-21T00:29:51;4.30;;;2.75;;
51244;SDS011;37840;47.562;18.738;2023-11-21T00:32:17;4.95;;;2.70;;
51244;SDS011;37840;47.562;18.738;2023-11-21T00:34:43;5.43;;;2.90;;
51244;SDS011;37840;47.562;18.738;2023-11-21T00:37:09;3.50;;;2.55;;
51244;SDS011;37840;47.562;18.738;2023-11-21T00:39:35;3.67;;;2.60;;
51244;SDS011;37840;47.562;18.738;2023-11-21T00:42:01;4.00;;;2.75;;
51244;SDS011;37840;47.562;18.738;2023-11-21T00:44:27;6.40;;;4.95;;
51244;SDS011;37840;47.562;18.738;2023-11-21T00:46:53;7.40;;;3.42;;
51244;SDS011;37840;47.562;18.738;2023-11-21T00:49:19;6.03;;;3.00;;
51244;SDS011;37840;47.562;18.738;2023-11-21T00:51:46;4.72;;;2.67;;
51244;SDS011;37840;47.562;18.738;2023-11-21T00:54:12;4.95;;;2.80;;
51244;SDS011;37840;47.562;18.738;2023-11-21T00:56:38;3.95;;;3.30;;
51244;SDS011;37840;47.562;18.738;2023-11-21T00:59:05;6.90;;;3.80;;
51244;SDS011;37840;47.562;18.738;2023-11-21T01:01:32;6.47;;;4.10;;
51244;SDS011;37840;47.562;18.738;2023-11-21T01:03:58;5.18;;;3.60;;
51244;SDS011;37840;47.562;18.738;2023-11-21T01:06:24;7.12;;;3.67;;
51244;SDS011;37840;47.562;18.738;2023-11-21T01:08:50;4.15;;;3.25;;
51244;SDS011;37840;47.562;18.738;2023-11-21T01:11:16;4.43;;;3.33;;
51244;SDS011;37840;47.562;18.738;2023-11-21T01:13:43;5.25;;;3.90;;
51244;SDS011;37840;47.562;18.738;2023-11-21T01:16:10;6.37;;;3.95;;
51244;SDS011;37840;47.562;18.738;2023-11-21T01:18:37;4.60;;;3.37;;
51244;SDS011;37840;47.562;18.738;2023-11-21T01:21:03;4.22;;;2.87;;
51244;SDS011;37840;47.562;18.738;2023-11-21T01:23:29;3.87;;;2.75;;
51244;SDS011;37840;47.562;18.738;2023-11-21T01:25:56;3.12;;;2.83;;
51244;SDS011;37840;47.562;18.738;2023-11-21T01:28:22;5.50;;;2.17;;
51244;SDS011;37840;47.562;18.738;2023-11-21T01:30:48;4.40;;;2.78;;
51244;SDS011;37840;47.562;18.738;2023-11-21T01:33:15;3.80;;;2.55;;
51244;SDS011;37840;47.562;18.738;2023-11-21T01:35:41;5.68;;;2.92;;
51244;SDS011;37840;47.562;18.738;2023-11-21T01:38:08;4.45;;;2.60;;
51244;SDS011;37840;47.562;18.738;2023-11-21T01:40:34;6.82;;;2.70;;
51244;SDS011;37840;47.562;18.738;2023-11-21T01:43:00;4.15;;;2.55;;
51244;SDS011;37840;47.562;18.738;2023-11-21T01:45:29;5.07;;;2.60;;
51244;SDS011;37840;47.562;18.738;2023-11-21T01:47:56;4.80;;;2.67;;
51244;SDS011;37840;47.562;18.738;2023-11-21T01:50:23;5.78;;;2.90;;
51244;SDS011;37840;47.562;18.738;2023-11-21T01:52:49;4.00;;;2.42;;
51244;SDS011;37840;47.562;18.738;2023-11-21T01:55:17;3.12;;;2.45;;
51244;SDS011;37840;47.562;18.738;2023-11-21T01:57:46;3.17;;;2.80;;
51244;SDS011;37840;47.562;18.738;2023-11-21T02:00:13;3.15;;;2.35;;
51244;SDS011;37840;47.562;18.738;2023-11-21T02:02:42;3.60;;;2.90;;
51244;SDS011;37840;47.562;18.738;2023-11-21T02:05:10;4.15;;;3.25;;
51244;SDS011;37840;47.562;18.738;2023-11-21T02:07:38;3.62;;;3.30;;
51244;SDS011;37840;47.562;18.738;2023-11-21T02:10:06;4.47;;;3.40;;
51244;SDS011;37840;47.562;18.738;2023-11-21T02:12:33;5.25;;;3.00;;
51244;SDS011;37840;47.562;18.738;2023-11-21T02:15:04;6.50;;;3.15;;
51244;SDS011;37840;47.562;18.738;2023-11-21T02:17:35;5.53;;;3.20;;
51244;SDS011;37840;47.562;18.738;2023-11-21T02:20:02;5.10;;;3.28;;
51244;SDS011;37840;47.562;18.738;2023-11-21T02:22:29;5.18;;;3.50;;
51244;SDS011;37840;47.562;18.738;2023-11-21T02:24:58;6.47;;;4.10;;
51244;SDS011;37840;47.562;18.738;2023-11-21T02:27:23;7.70;;;3.53;;
51244;SDS011;37840;47.562;18.738;2023-11-21T02:29:50;5.80;;;3.80;;
51244;SDS011;37840;47.562;18.738;2023-11-21T02:32:16;3.92;;;3.53;;
51244;SDS011;37840;47.562;18.738;2023-11-21T02:34:44;5.55;;;4.20;;
51244;SDS011;37840;47.562;18.738;2023-11-21T02:37:10;4.72;;;3.95;;
51244;SDS011;37840;47.562;18.738;2023-11-21T02:39:36;4.78;;;3.42;;
51244;SDS011;37840;47.562;18.738;2023-11-21T02:42:03;5.82;;;3.80;;
51244;SDS011;37840;47.562;18.738;2023-11-21T02:44:29;6.55;;;3.95;;
51244;SDS011;37840;47.562;18.738;2023-11-21T02:46:55;4.25;;;3.40;;
51244;SDS011;37840;47.562;18.738;2023-11-21T02:49:23;5.55;;;3.22;;
51244;SDS011;37840;47.562;18.738;2023-11-21T02:51:49;4.40;;;3.10;;
51244;SDS011;37840;47.562;18.738;2023-11-21T02:54:15;6.28;;;3.00;;
51244;SDS011;37840;47.562;18.738;2023-11-21T02:56:42;4.72;;;3.00;;
51244;SDS011;37840;47.562;18.738;2023-11-21T02:59:08;5.20;;;3.00;;
51244;SDS011;37840;47.562;18.738;2023-11-21T03:01:34;4.55;;;3.30;;
51244;SDS011;37840;47.562;18.738;2023-11-21T03:04:00;5.05;;;3.47;;
51244;SDS011;37840;47.562;18.738;2023-11-21T03:06:27;7.12;;;3.50;;
51244;SDS011;37840;47.562;18.738;2023-11-21T03:08:53;5.18;;;3.45;;
51244;SDS011;37840;47.562;18.738;2023-11-21T03:11:19;5.60;;;3.25;;
51244;SDS011;37840;47.562;18.738;2023-11-21T03:13:45;4.60;;;3.45;;
51244;SDS011;37840;47.562;18.738;2023-11-21T03:16:11;8.73;;;3.47;;
51244;SDS011;37840;47.562;18.738;2023-11-21T03:18:38;4.40;;;3.58;;
51244;SDS011;37840;47.562;18.738;2023-11-21T03:21:04;5.12;;;3.67;;
51244;SDS011;37840;47.562;18.738;2023-11-21T03:23:31;7.18;;;3.62;;
51244;SDS011;37840;47.562;18.738;2023-11-21T03:25:57;6.40;;;3.62;;
51244;SDS011;37840;47.562;18.738;2023-11-21T03:28:25;3.47;;;2.80;;
51244;SDS011;37840;47.562;18.738;2023-11-21T03:30:52;3.65;;;3.20;;
51244;SDS011;37840;47.562;18.738;2023-11-21T03:33:18;5.90;;;3.60;;
51244;SDS011;37840;47.562;18.738;2023-11-21T03:35:44;5.70;;;3.75;;
51244;SDS011;37840;47.562;18.738;2023-11-21T03:38:10;5.90;;;4.10;;
51244;SDS011;37840;47.562;18.738;2023-11-21T03:40:36;5.95;;;3.58;;
51244;SDS011;37840;47.562;18.738;2023-11-21T03:43:02;4.07;;;3.50;;
51244;SDS011;37840;47.562;18.738;2023-11-21T03:45:28;6.87;;;3.37;;
51244;SDS011;37840;47.562;18.738;2023-11-21T03:47:54;5.25;;;3.20;;
51244;SDS011;37840;47.562;18.738;2023-11-21T03:50:21;4.00;;;3.35;;
51244;SDS011;37840;47.562;18.738;2023-11-21T03:52:47;4.05;;;3.08;;
51244;SDS011;37840;47.562;18.738;2023-11-21T03:55:13;7.45;;;3.55;;
51244;SDS011;37840;47.562;18.738;2023-11-21T03:57:40;5.75;;;3.90;;
51244;SDS011;37840;47.562;18.738;2023-11-21T04:00:06;5.80;;;3.78;;
51244;SDS011;37840;47.562;18.738;2023-11-21T04:02:34;4.55;;;4.15;;
51244;SDS011;37840;47.562;18.738;2023-11-21T04:05:00;6.97;;;4.90;;
51244;SDS011;37840;47.562;18.738;2023-11-21T04:07:26;6.22;;;4.53;;
51244;SDS011;37840;47.562;18.738;2023-11-21T04:09:52;5.57;;;4.22;;
51244;SDS011;37840;47.562;18.738;2023-11-21T04:12:19;5.57;;;4.30;;
51244;SDS011;37840;47.562;18.738;2023-11-21T04:14:45;6.80;;;4.70;;
51244;SDS011;37840;47.562;18.738;2023-11-21T04:17:11;8.38;;;4.90;;
51244;SDS011;37840;47.562;18.738;2023-11-21T04:19:37;6.15;;;4.47;;
51244;SDS011;37840;47.562;18.738;2023-11-21T04:22:03;10.82;;;4.62;;
51244;SDS011;37840;47.562;18.738;2023-11-21T04:24:29;5.22;;;4.18;;
51244;SDS011;37840;47.562;18.738;2023-11-21T04:26:55;4.45;;;3.85;;
51244;SDS011;37840;47.562;18.738;2023-11-21T04:29:21;5.25;;;3.80;;
51244;SDS011;37840;47.562;18.738;2023-11-21T04:31:48;7.68;;;4.07;;
51244;SDS011;37840;47.562;18.738;2023-11-21T04:34:14;6.30;;;4.15;;
51244;SDS011;37840;47.562;18.738;2023-11-21T04:36:40;4.30;;;3.53;;
51244;SDS011;37840;47.562;18.738;2023-11-21T04:39:06;4.50;;;3.62;;
51244;SDS011;37840;47.562;18.738;2023-11-21T04:41:32;4.95;;;3.60;;
51244;SDS011;37840;47.562;18.738;2023-11-21T04:43:58;4.90;;;3.80;;
51244;SDS011;37840;47.562;18.738;2023-11-21T04:46:26;5.75;;;3.62;;
51244;SDS011;37840;47.562;18.738;2023-11-21T04:48:52;4.15;;;3.60;;
51244;SDS011;37840;47.562;18.738;2023-11-21T04:51:18;7.40;;;4.12;;
51244;SDS011;37840;47.562;18.738;2023-11-21T04:53:43;4.57;;;3.85;;
51244;SDS011;37840;47.562;18.738;2023-11-21T04:56:09;8.98;;;4.15;;
51244;SDS011;37840;47.562;18.738;2023-11-21T04:58:35;4.37;;;3.50;;
51244;SDS011;37840;47.562;18.738;2023-11-21T05:01:02;5.15;;;3.60;;
51244;SDS011;37840;47.562;18.738;2023-11-21T05:03:28;4.45;;;3.37;;
51244;SDS011;37840;47.562;18.738;2023-11-21T05:05:55;6.47;;;4.05;;
51244;SDS011;37840;47.562;18.738;2023-11-21T05:08:21;4.72;;;3.80;;
51244;SDS011;37840;47.562;18.738;2023-11-21T05:10:48;4.60;;;3.62;;
51244;SDS011;37840;47.562;18.738;2023-11-21T05:13:16;4.55;;;3.40;;
51244;SDS011;37840;47.562;18.738;2023-11-21T05:15:43;4.87;;;3.65;;
51244;SDS011;37840;47.562;18.738;2023-11-21T05:18:09;4.32;;;3.85;;
51244;SDS011;37840;47.562;18.738;2023-11-21T05:20:35;7.85;;;3.95;;
51244;SDS011;37840;47.562;18.738;2023-11-21T05:23:01;4.55;;;4.03;;
51244;SDS011;37840;47.562;18.738;2023-11-21T05:25:27;4.80;;;4.30;;
51244;SDS011;37840;47.562;18.738;2023-11-21T05:27:53;6.62;;;4.20;;
51244;SDS011;37840;47.562;18.738;2023-11-21T05:30:20;6.62;;;4.60;;
51244;SDS011;37840;47.562;18.738;2023-11-21T05:32:47;6.93;;;5.53;;
51244;SDS011;37840;47.562;18.738;2023-11-21T05:35:13;8.30;;;5.50;;
51244;SDS011;37840;47.562;18.738;2023-11-21T05:37:41;11.85;;;8.32;;
51244;SDS011;37840;47.562;18.738;2023-11-21T05:40:08;12.40;;;9.70;;
51244;SDS011;37840;47.562;18.738;2023-11-21T05:42:35;14.63;;;9.57;;
51244;SDS011;37840;47.562;18.738;2023-11-21T05:45:02;11.63;;;9.23;;
51244;SDS011;37840;47.562;18.738;2023-11-21T05:47:41;10.57;;;7.82;;
51244;SDS011;37840;47.562;18.738;2023-11-21T05:50:08;8.95;;;6.57;;
51244;SDS011;37840;47.562;18.738;2023-11-21T05:52:36;9.85;;;6.20;;
51244;SDS011;37840;47.562;18.738;2023-11-21T05:55:03;10.35;;;6.50;;
51244;SDS011;37840;47.562;18.738;2023-11-21T05:57:33;14.15;;;12.35;;
51244;SDS011;37840;47.562;18.738;2023-11-21T06:00:03;14.85;;;10.32;;
51244;SDS011;37840;47.562;18.738;2023-11-21T06:02:40;15.43;;;10.77;;
51244;SDS011;37840;47.562;18.738;2023-11-21T06:05:06;11.85;;;8.85;;
51244;SDS011;37840;47.562;18.738;2023-11-21T06:07:33;18.35;;;9.02;;
51244;SDS011;37840;47.562;18.738;2023-11-21T06:09:59;16.95;;;9.00;;
51244;SDS011;37840;47.562;18.738;2023-11-21T06:12:25;14.80;;;8.93;;
51244;SDS011;37840;47.562;18.738;2023-11-21T06:14:51;14.20;;;8.70;;
51244;SDS011;37840;47.562;18.738;2023-11-21T06:17:17;17.70;;;9.05;;
51244;SDS011;37840;47.562;18.738;2023-11-21T06:19:44;12.35;;;10.10;;
51244;SDS011;37840;47.562;18.738;2023-11-21T06:22:11;17.30;;;10.10;;
51244;SDS011;37840;47.562;18.738;2023-11-21T06:24:37;13.77;;;10.82;;
51244;SDS011;37840;47.562;18.738;2023-11-21T06:27:04;14.48;;;10.30;;
51244;SDS011;37840;47.562;18.738;2023-11-21T06:29:30;14.23;;;9.20;;
51244;SDS011;37840;47.562;18.738;2023-11-21T06:31:57;12.68;;;8.27;;
51244;SDS011;37840;47.562;18.738;2023-11-21T06:34:24;13.45;;;8.48;;
51244;SDS011;37840;47.562;18.738;2023-11-21T06:36:50;13.32;;;7.93;;
51244;SDS011;37840;47.562;18.738;2023-11-21T06:39:17;13.15;;;7.00;;
51244;SDS011;37840;47.562;18.738;2023-11-21T06:41:43;8.75;;;6.25;;
51244;SDS011;37840;47.562;18.738;2023-11-21T06:44:08;9.73;;;5.60;;
51244;SDS011;37840;47.562;18.738;2023-11-21T06:46:34;7.62;;;5.35;;
51244;SDS011;37840;47.562;18.738;2023-11-21T06:49:00;9.10;;;5.25;;
51244;SDS011;37840;47.562;18.738;2023-11-21T06:51:26;6.50;;;4.68;;
51244;SDS011;37840;47.562;18.738;2023-11-21T06:53:52;5.78;;;4.22;;
51244;SDS011;37840;47.562;18.738;2023-11-21T06:56:18;5.25;;;4.55;;
51244;SDS011;37840;47.562;18.738;2023-11-21T06:58:45;4.70;;;4.30;;
51244;SDS011;37840;47.562;18.738;2023-11-21T07:01:12;6.57;;;4.62;;
51244;SDS011;37840;47.562;18.738;2023-11-21T07:03:39;7.25;;;4.90;;
51244;SDS011;37840;47.562;18.738;2023-11-21T07:06:05;7.07;;;5.07;;
51244;SDS011;37840;47.562;18.738;2023-11-21T07:08:31;9.90;;;5.95;;
51244;SDS011;37840;47.562;18.738;2023-11-21T07:10:57;32.50;;;19.45;;
51244;SDS011;37840;47.562;18.738;2023-11-21T07:13:23;49.33;;;30.55;;
51244;SDS011;37840;47.562;18.738;2023-11-21T07:15:49;63.90;;;38.15;;
51244;SDS011;37840;47.562;18.738;2023-11-21T07:18:15;45.47;;;26.20;;
51244;SDS011;37840;47.562;18.738;2023-11-21T07:20:40;41.70;;;25.50;;
51244;SDS011;37840;47.562;18.738;2023-11-21T07:23:06;37.10;;;21.10;;
51244;SDS011;37840;47.562;18.738;2023-11-21T07:25:32;33.95;;;22.10;;
51244;SDS011;37840;47.562;18.738;2023-11-21T07:27:59;49.10;;;30.08;;
51244;SDS011;37840;47.562;18.738;2023-11-21T07:30:26;40.28;;;23.67;;
51244;SDS011;37840;47.562;18.738;2023-11-21T07:32:52;35.40;;;22.58;;
51244;SDS011;37840;47.562;18.738;2023-11-21T07:35:19;34.40;;;22.85;;
51244;SDS011;37840;47.562;18.738;2023-11-21T07:37:45;36.13;;;19.67;;
51244;SDS011;37840;47.562;18.738;2023-11-21T07:40:12;24.48;;;16.48;;
51244;SDS011;37840;47.562;18.738;2023-11-21T07:42:39;21.73;;;13.27;;
51244;SDS011;37840;47.562;18.738;2023-11-21T07:45:05;18.08;;;9.82;;
51244;SDS011;37840;47.562;18.738;2023-11-21T07:47:32;12.60;;;8.50;;
51244;SDS011;37840;47.562;18.738;2023-11-21T07:50:00;9.38;;;7.80;;
51244;SDS011;37840;47.562;18.738;2023-11-21T07:52:28;10.75;;;8.07;;
51244;SDS011;37840;47.562;18.738;2023-11-21T07:54:54;12.48;;;8.43;;
51244;SDS011;37840;47.562;18.738;2023-11-21T07:57:20;15.00;;;8.70;;
51244;SDS011;37840;47.562;18.738;2023-11-21T07:59:46;11.48;;;8.50;;
51244;SDS011;37840;47.562;18.738;2023-11-21T08:02:12;11.95;;;8.35;;
51244;SDS011;37840;47.562;18.738;2023-11-21T08:04:38;9.43;;;7.90;;
51244;SDS011;37840;47.562;18.738;2023-11-21T08:07:04;12.77;;;8.18;;
51244;SDS011;37840;47.562;18.738;2023-11-21T08:09:30;11.70;;;7.95;;
51244;SDS011;37840;47.562;18.738;2023-11-21T08:11:56;12.73;;;8.75;;
51244;SDS011;37840;47.562;18.738;2023-11-21T08:14:22;16.62;;;9.43;;
51244;SDS011;37840;47.562;18.738;2023-11-21T08:16:50;12.23;;;8.88;;
51244;SDS011;37840;47.562;18.738;2023-11-21T08:19:17;12.35;;;9.77;;
51244;SDS011;37840;47.562;18.738;2023-11-21T08:21:43;11.85;;;9.27;;
51244;SDS011;37840;47.562;18.738;2023-11-21T08:24:11;10.07;;;8.15;;
51244;SDS011;37840;47.562;18.738;2023-11-21T08:26:37;12.40;;;8.40;;
51244;SDS011;37840;47.562;18.738;2023-11-21T08:29:03;13.70;;;8.35;;
51244;SDS011;37840;47.562;18.738;2023-11-21T08:31:29;12.35;;;7.78;;
51244;SDS011;37840;47.562;18.738;2023-11-21T08:33:55;10.82;;;8.07;;
51244;SDS011;37840;47.562;18.738;2023-11-21T08:36:21;11.10;;;8.63;;
51244;SDS011;37840;47.562;18.738;2023-11-21T08:38:49;15.63;;;9.35;;
51244;SDS011;37840;47.562;18.738;2023-11-21T08:41:17;10.80;;;8.23;;
51244;SDS011;37840;47.562;18.738;2023-11-21T08:43:43;10.43;;;7.70;;
51244;SDS011;37840;47.562;18.738;2023-11-21T08:46:10;12.30;;;8.43;;
51244;SDS011;37840;47.562;18.738;2023-11-21T08:48:36;11.93;;;8.25;;
51244;SDS011;37840;47.562;18.738;2023-11-21T08:51:03;10.98;;;8.73;;
51244;SDS011;37840;47.562;18.738;2023-11-21T08:53:30;10.57;;;8.35;;
51244;SDS011;37840;47.562;18.738;2023-11-21T08:55:56;10.82;;;8.57;;
51244;SDS011;37840;47.562;18.738;2023-11-21T08:58:22;13.32;;;8.77;;
51244;SDS011;37840;47.562;18.738;2023-11-21T09:00:48;10.60;;;8.10;;
51244;SDS011;37840;47.562;18.738;2023-11-21T09:03:14;14.95;;;9.43;;
51244;SDS011;37840;47.562;18.738;2023-11-21T09:05:40;11.85;;;8.40;;
51244;SDS011;37840;47.562;18.738;2023-11-21T09:08:06;12.82;;;8.38;;
51244;SDS011;37840;47.562;18.738;2023-11-21T09:10:33;10.80;;;7.93;;
51244;SDS011;37840;47.562;18.738;2023-11-21T09:13:02;10.32;;;7.55;;
51244;SDS011;37840;47.562;18.738;2023-11-21T09:15:28;11.52;;;7.62;;
51244;SDS011;37840;47.562;18.738;2023-11-21T09:17:54;9.10;;;7.22;;
51244;SDS011;37840;47.562;18.738;2023-11-21T09:20:20;11.23;;;8.18;;
51244;SDS011;37840;47.562;18.738;2023-11-21T09:22:48;10.60;;;7.20;;
51244;SDS011;37840;47.562;18.738;2023-11-21T09:25:14;11.32;;;7.87;;
51244;SDS011;37840;47.562;18.738;2023-11-21T09:27:41;9.55;;;7.00;;
51244;SDS011;37840;47.562;18.738;2023-11-21T09:30:07;11.30;;;6.93;;
51244;SDS011;37840;47.562;18.738;2023-11-21T09:32:37;11.43;;;7.18;;
51244;SDS011;37840;47.562;18.738;2023-11-21T09:35:04;12.00;;;7.87;;
51244;SDS011;37840;47.562;18.738;2023-11-21T09:37:31;10.32;;;7.20;;
51244;SDS011;37840;47.562;18.738;2023-11-21T09:39:57;10.32;;;7.82;;
51244;SDS011;37840;47.562;18.738;2023-11-21T09:42:23;9.57;;;7.70;;
51244;SDS011;37840;47.562;18.738;2023-11-21T09:47:22;10.50;;;7.35;;
51244;SDS011;37840;47.562;18.738;2023-11-21T09:49:49;10.27;;;6.90;;
51244;SDS011;37840;47.562;18.738;2023-11-21T09:52:18;10.70;;;7.00;;
51244;SDS011;37840;47.562;18.738;2023-11-21T09:54:49;8.32;;;6.87;;
51244;SDS011;37840;47.562;18.738;2023-11-21T09:57:16;8.77;;;6.70;;
51244;SDS011;37840;47.562;18.738;2023-11-21T09:59:44;8.75;;;6.85;;
51244;SDS011;37840;47.562;18.738;2023-11-21T10:02:12;11.27;;;7.50;;
51244;SDS011;37840;47.562;18.738;2023-11-21T10:04:44;8.18;;;6.55;;
51244;SDS011;37840;47.562;18.738;2023-11-21T10:07:11;8.23;;;6.57;;
51244;SDS011;37840;47.562;18.738;2023-11-21T10:09:41;8.82;;;6.60;;
51244;SDS011;37840;47.562;18.738;2023-11-21T10:12:07;9.27;;;6.18;;
51244;SDS011;37840;47.562;18.738;2023-11-21T10:14:38;8.30;;;6.00;;
51244;SDS011;37840;47.562;18.738;2023-11-21T10:17:07;9.07;;;5.93;;
51244;SDS011;37840;47.562;18.738;2023-11-21T10:19:35;8.65;;;5.95;;
51244;SDS011;37840;47.562;18.738;2023-11-21T10:22:02;8.95;;;6.18;;
51244;SDS011;37840;47.562;18.738;2023-11-21T10:24:29;7.47;;;6.37;;
51244;SDS011;37840;47.562;18.738;2023-11-21T10:26:55;11.12;;;8.02;;
51244;SDS011;37840;47.562;18.738;2023-11-21T10:29:20;12.93;;;9.15;;
51244;SDS011;37840;47.562;18.738;2023-11-21T10:31:49;13.70;;;8.60;;
51244;SDS011;37840;47.562;18.738;2023-11-21T10:34:16;10.48;;;7.12;;
51244;SDS011;37840;47.562;18.738;2023-11-21T10:36:43;9.82;;;6.68;;
51244;SDS011;37840;47.562;18.738;2023-11-21T10:39:14;12.13;;;6.20;;
51244;SDS011;37840;47.562;18.738;2023-11-21T10:41:44;7.25;;;5.85;;
51244;SDS011;37840;47.562;18.738;2023-11-21T10:44:13;8.70;;;5.80;;
51244;SDS011;37840;47.562;18.738;2023-11-21T10:46:46;9.23;;;6.20;;
51244;SDS011;37840;47.562;18.738;2023-11-21T10:49:22;8.75;;;6.65;;
51244;SDS011;37840;47.562;18.738;2023-11-21T10:51:50;9.32;;;5.93;;
51244;SDS011;37840;47.562;18.738;2023-11-21T10:54:22;9.45;;;6.12;;
51244;SDS011;37840;47.562;18.738;2023-11-21T10:56:50;10.20;;;5.90;;
51244;SDS011;37840;47.562;18.738;2023-11-21T10:59:19;8.43;;;5.55;;
51244;SDS011;37840;47.562;18.738;2023-11-21T11:01:46;9.40;;;6.25;;
51244;SDS011;37840;47.562;18.738;2023-11-21T11:04:18;8.57;;;5.72;;
51244;SDS011;37840;47.562;18.738;2023-11-21T11:07:05;9.73;;;5.68;;
51244;SDS011;37840;47.562;18.738;2023-11-21T11:09:35;10.20;;;5.80;;
51244;SDS011;37840;47.562;18.738;2023-11-21T11:12:01;6.32;;;5.05;;
51244;SDS011;37840;47.562;18.738;2023-11-21T11:14:29;9.82;;;5.35;;
51244;SDS011;37840;47.562;18.738;2023-11-21T11:16:55;10.05;;;5.60;;
51244;SDS011;37840;47.562;18.738;2023-11-21T11:19:22;7.62;;;6.00;;
51244;SDS011;37840;47.562;18.738;2023-11-21T11:21:53;7.40;;;5.57;;
51244;SDS011;37840;47.562;18.738;2023-11-21T11:26:57;9.07;;;5.65;;
51244;SDS011;37840;47.562;18.738;2023-11-21T11:30:23;6.47;;;5.07;;
51244;SDS011;37840;47.562;18.738;2023-11-21T11:38:31;6.50;;;5.57;;
51244;SDS011;37840;47.562;18.738;2023-11-21T11:41:01;5.72;;;5.10;;
51244;SDS011;37840;47.562;18.738;2023-11-21T11:43:29;8.10;;;6.12;;
51244;SDS011;37840;47.562;18.738;2023-11-21T11:45:58;6.35;;;5.62;;
51244;SDS011;37840;47.562;18.738;2023-11-21T11:48:25;8.55;;;5.70;;
51244;SDS011;37840;47.562;18.738;2023-11-21T11:51:00;8.15;;;6.05;;
51244;SDS011;37840;47.562;18.738;2023-11-21T11:53:37;8.70;;;6.72;;
51244;SDS011;37840;47.562;18.738;2023-11-21T11:59:00;6.03;;;5.32;;
51244;SDS011;37840;47.562;18.738;2023-11-21T12:01:32;5.85;;;4.82;;
51244;SDS011;37840;47.562;18.738;2023-11-21T12:06:42;6.68;;;4.72;;
51244;SDS011;37840;47.562;18.738;2023-11-21T12:09:17;8.82;;;5.22;;
51244;SDS011;37840;47.562;18.738;2023-11-21T12:11:44;7.12;;;5.50;;
51244;SDS011;37840;47.562;18.738;2023-11-21T12:14:12;8.68;;;5.53;;
51244;SDS011;37840;47.562;18.738;2023-11-21T12:16:39;8.80;;;6.37;;
51244;SDS011;37840;47.562;18.738;2023-11-21T12:19:05;9.50;;;6.43;;
51244;SDS011;37840;47.562;18.738;2023-11-21T12:21:32;7.40;;;5.80;;
51244;SDS011;37840;47.562;18.738;2023-11-21T12:23:58;7.18;;;5.65;;
51244;SDS011;37840;47.562;18.738;2023-11-21T12:26:24;7.78;;;6.47;;
51244;SDS011;37840;47.562;18.738;2023-11-21T12:28:53;10.48;;;6.53;;
51244;SDS011;37840;47.562;18.738;2023-11-21T12:31:22;8.32;;;6.00;;
51244;SDS011;37840;47.562;18.738;2023-11-21T12:33:49;12.07;;;6.87;;
51244;SDS011;37840;47.562;18.738;2023-11-21T12:36:15;9.90;;;6.50;;
51244;SDS011;37840;47.562;18.738;2023-11-21T12:38:41;11.68;;;6.62;;
51244;SDS011;37840;47.562;18.738;2023-11-21T12:41:09;8.65;;;6.30;;
51244;SDS011;37840;47.562;18.738;2023-11-21T12:43:35;8.15;;;6.15;;
51244;SDS011;37840;47.562;18.738;2023-11-21T12:46:08;9.80;;;7.07;;
51244;SDS011;37840;47.562;18.738;2023-11-21T12:48:38;11.90;;;7.50;;
51244;SDS011;37840;47.562;18.738;2023-11-21T12:51:11;10.23;;;6.80;;
51244;SDS011;37840;47.562;18.738;2023-11-21T12:53:39;9.30;;;6.68;;
51244;SDS011;37840;47.562;18.738;2023-11-21T12:56:14;12.07;;;7.03;;
51244;SDS011;37840;47.562;18.738;2023-11-21T12:58:44;13.40;;;9.02;;
51244;SDS011;37840;47.562;18.738;2023-11-21T13:01:12;12.20;;;8.50;;
51244;SDS011;37840;47.562;18.738;2023-11-21T13:06:14;6.45;;;5.85;;
51244;SDS011;37840;47.562;18.738;2023-11-21T13:08:41;9.68;;;6.50;;
51244;SDS011;37840;47.562;18.738;2023-11-21T13:11:10;7.90;;;5.57;;
51244;SDS011;37840;47.562;18.738;2023-11-21T13:13:36;5.95;;;3.85;;
51244;SDS011;37840;47.562;18.738;2023-11-21T13:16:04;4.50;;;3.15;;
51244;SDS011;37840;47.562;18.738;2023-11-21T13:18:30;5.05;;;3.50;;
51244;SDS011;37840;47.562;18.738;2023-11-21T13:21:02;4.53;;;3.80;;
51244;SDS011;37840;47.562;18.738;2023-11-21T13:23:35;5.75;;;3.90;;
51244;SDS011;37840;47.562;18.738;2023-11-21T13:26:03;5.80;;;4.35;;
51244;SDS011;37840;47.562;18.738;2023-11-21T13:28:32;7.03;;;5.18;;
51244;SDS011;37840;47.562;18.738;2023-11-21T13:30:59;8.05;;;5.00;;
51244;SDS011;37840;47.562;18.738;2023-11-21T13:33:35;7.95;;;4.85;;
51244;SDS011;37840;47.562;18.738;2023-11-21T13:36:06;6.55;;;4.40;;
51244;SDS011;37840;47.562;18.738;2023-11-21T13:38:35;6.70;;;4.78;;
51244;SDS011;37840;47.562;18.738;2023-11-21T13:41:03;7.95;;;4.93;;
51244;SDS011;37840;47.562;18.738;2023-11-21T13:43:32;12.27;;;6.65;;
51244;SDS011;37840;47.562;18.738;2023-11-21T13:45:59;7.05;;;5.07;;
51244;SDS011;37840;47.562;18.738;2023-11-21T13:48:36;7.47;;;4.50;;
51244;SDS011;37840;47.562;18.738;2023-11-21T13:51:24;6.00;;;4.28;;
51244;SDS011;37840;47.562;18.738;2023-11-21T13:54:11;6.82;;;4.90;;
51244;SDS011;37840;47.562;18.738;2023-11-21T13:56:37;6.87;;;4.70;;
51244;SDS011;37840;47.562;18.738;2023-11-21T13:59:04;5.68;;;4.07;;
51244;SDS011;37840;47.562;18.738;2023-11-21T14:01:42;4.62;;;3.80;;
51244;SDS011;37840;47.562;18.738;2023-11-21T14:04:21;5.45;;;3.50;;
51244;SDS011;37840;47.562;18.738;2023-11-21T14:06:56;5.68;;;3.47;;
51244;SDS011;37840;47.562;18.738;2023-11-21T14:09:24;6.15;;;3.72;;
51244;SDS011;37840;47.562;18.738;2023-11-21T14:11:51;4.43;;;3.53;;
51244;SDS011;37840;47.562;18.738;2023-11-21T14:14:19;5.80;;;3.78;;
51244;SDS011;37840;47.562;18.738;2023-11-21T14:16:46;5.85;;;3.05;;
51244;SDS011;37840;47.562;18.738;2023-11-21T14:19:12;6.75;;;3.85;;
51244;SDS011;37840;47.562;18.738;2023-11-21T14:21:41;4.62;;;3.37;;
51244;SDS011;37840;47.562;18.738;2023-11-21T14:24:09;5.93;;;3.10;;
51244;SDS011;37840;47.562;18.738;2023-11-21T14:26:35;4.15;;;2.90;;
51244;SDS011;37840;47.562;18.738;2023-11-21T14:29:01;4.43;;;2.55;;
51244;SDS011;37840;47.562;18.738;2023-11-21T14:31:28;3.83;;;2.40;;
51244;SDS011;37840;47.562;18.738;2023-11-21T14:33:56;3.40;;;2.40;;
51244;SDS011;37840;47.562;18.738;2023-11-21T14:36:22;4.50;;;2.67;;
51244;SDS011;37840;47.562;18.738;2023-11-21T14:38:49;6.75;;;3.60;;
51244;SDS011;37840;47.562;18.738;2023-11-21T14:41:15;6.97;;;4.62;;
51244;SDS011;37840;47.562;18.738;2023-11-21T14:43:42;7.50;;;5.22;;
51244;SDS011;37840;47.562;18.738;2023-11-21T14:46:08;5.57;;;4.60;;
51244;SDS011;37840;47.562;18.738;2023-11-21T14:48:35;8.02;;;4.93;;
51244;SDS011;37840;47.562;18.738;2023-11-21T14:51:08;8.57;;;5.10;;